Time;durP1;ratioP1;P1;durP2;ratioP2;P2;SDS_P1;SDS_P2;PMS_P1;PMS_P2;Temp;Humidity;BMP_temperature;BMP_pressure;BME280_temperature;BME280_humidity;BME280_pressure;Samples;Min_cycle;Max_cycle;Signal;HPM_P1;HPM_P2
2022/01/02 00:00:08;;;;;;;18.10;5.75;;;;;;;;;;5022505;28;20081;-71
2022/01/02 00:02:35;;;;;;;15.32;6.13;;;;;;;;;;5030692;28;20549;-72
2022/01/02 00:05:09;;;;;;;10.52;6.13;;;;;;;;;;5020337;28;20049;-72
2022/01/02 00:07:36;;;;;;;12.32;6.10;;;;;;;;;;5027754;28;20038;-72
2022/01/02 00:10:04;;;;;;;16.45;7.32;;;;;;;;;;5019996;28;20034;-71
2022/01/02 00:12:34;;;;;;;12.85;5.78;;;;;;;;;;5017690;28;20060;-72
2022/01/02 00:15:02;;;;;;;13.48;6.13;;;;;;;;;;5022170;28;20095;-72
2022/01/02 00:17:30;;;;;;;10.90;5.78;;;;;;;;;;5020738;28;20044;-72
2022/01/02 00:19:58;;;;;;;18.45;5.75;;;;;;;;;;5022598;28;20087;-72
2022/01/02 00:22:34;;;;;;;11.80;5.50;;;;;;;;;;5023387;28;20046;-72
2022/01/02 00:25:04;;;;;;;10.50;5.43;;;;;;;;;;5020044;28;20103;-71
2022/01/02 00:27:32;;;;;;;11.25;6.38;;;;;;;;;;5019000;28;20084;-72
2022/01/02 00:29:58;;;;;;;15.13;6.68;;;;;;;;;;5019161;28;20384;-71
2022/01/02 00:32:24;;;;;;;13.52;6.32;;;;;;;;;;5022245;28;20438;-71
2022/01/02 00:34:52;;;;;;;14.05;6.35;;;;;;;;;;5023328;28;20091;-71
2022/01/02 00:37:18;;;;;;;12.93;6.30;;;;;;;;;;5008339;28;20120;-71
2022/01/02 00:39:44;;;;;;;16.65;6.63;;;;;;;;;;5021711;28;20496;-71
2022/01/02 00:42:11;;;;;;;18.02;10.10;;;;;;;;;;5021350;28;20040;-72
2022/01/02 00:44:46;;;;;;;21.33;6.30;;;;;;;;;;5023884;28;20041;-71
2022/01/02 00:47:15;;;;;;;17.55;6.55;;;;;;;;;;5023099;28;20116;-71
2022/01/02 00:49:43;;;;;;;14.20;6.53;;;;;;;;;;5018916;28;20108;-71
2022/01/02 00:52:11;;;;;;;16.52;5.97;;;;;;;;;;5020444;28;20148;-71
2022/01/02 00:54:39;;;;;;;17.02;5.93;;;;;;;;;;5021551;28;20029;-71
2022/01/02 00:57:09;;;;;;;15.48;6.80;;;;;;;;;;5020368;28;21628;-71
2022/01/02 00:59:44;;;;;;;16.52;6.13;;;;;;;;;;5019381;28;20040;-71
2022/01/02 01:02:13;;;;;;;18.27;5.63;;;;;;;;;;5020264;28;20035;-71
2022/01/02 01:04:43;;;;;;;13.48;6.32;;;;;;;;;;5025392;28;20025;-71
2022/01/02 01:07:09;;;;;;;15.98;6.45;;;;;;;;;;5002684;28;20518;-71
2022/01/02 01:09:35;;;;;;;21.95;7.53;;;;;;;;;;5019932;28;20375;-71
2022/01/02 01:12:02;;;;;;;15.80;6.75;;;;;;;;;;5018499;28;20116;-71
2022/01/02 01:14:29;;;;;;;18.25;6.85;;;;;;;;;;5025906;28;20030;-71
2022/01/02 01:16:55;;;;;;;14.90;6.85;;;;;;;;;;5017777;28;20022;-71
2022/01/02 01:19:22;;;;;;;15.30;6.70;;;;;;;;;;5023889;28;20113;-71
2022/01/02 01:21:49;;;;;;;21.98;6.63;;;;;;;;;;5018417;28;20522;-72
2022/01/02 01:24:15;;;;;;;16.33;6.82;;;;;;;;;;5023652;28;20116;-70
2022/01/02 01:26:41;;;;;;;19.25;6.45;;;;;;;;;;5019319;28;20486;-71
2022/01/02 01:29:07;;;;;;;15.45;6.68;;;;;;;;;;5022159;28;20034;-71
2022/01/02 01:31:33;;;;;;;21.27;6.93;;;;;;;;;;5006106;28;20185;-71
2022/01/02 01:33:59;;;;;;;20.55;7.53;;;;;;;;;;5020436;28;20045;-70
2022/01/02 01:36:25;;;;;;;17.58;6.75;;;;;;;;;;5019946;28;20037;-71
2022/01/02 01:38:52;;;;;;;18.95;7.47;;;;;;;;;;5018891;28;20032;-71
2022/01/02 01:41:21;;;;;;;16.75;7.50;;;;;;;;;;5008708;28;20033;-71
2022/01/02 01:44:07;;;;;;;23.48;8.43;;;;;;;;;;5024426;28;20033;-71
2022/01/02 01:46:33;;;;;;;17.05;7.53;;;;;;;;;;5026632;28;20522;-71
2022/01/02 01:48:59;;;;;;;21.13;8.25;;;;;;;;;;5025878;28;20037;-70
2022/01/02 01:51:26;;;;;;;16.58;8.43;;;;;;;;;;5008275;28;20037;-70
2022/01/02 01:53:52;;;;;;;19.60;9.15;;;;;;;;;;5015972;28;20379;-70
2022/01/02 01:56:18;;;;;;;19.08;8.52;;;;;;;;;;5024278;28;20057;-71
2022/01/02 01:58:45;;;;;;;18.20;8.63;;;;;;;;;;5028086;28;20034;-71
2022/01/02 02:01:11;;;;;;;27.50;9.73;;;;;;;;;;5020151;28;20025;-71
2022/01/02 02:03:37;;;;;;;28.83;9.27;;;;;;;;;;5023890;28;20083;-71
2022/01/02 02:06:03;;;;;;;23.83;9.80;;;;;;;;;;5024957;28;20504;-71
2022/01/02 02:08:29;;;;;;;26.35;8.98;;;;;;;;;;5019855;28;20103;-71
2022/01/02 02:10:57;;;;;;;26.50;9.43;;;;;;;;;;5022481;28;20036;-71
2022/01/02 02:13:24;;;;;;;25.48;9.10;;;;;;;;;;5027169;28;20167;-71
2022/01/02 02:15:53;;;;;;;28.92;9.27;;;;;;;;;;5023604;28;20041;-71
2022/01/02 02:18:19;;;;;;;21.52;9.13;;;;;;;;;;5009179;28;20567;-72
2022/01/02 02:20:45;;;;;;;23.70;8.90;;;;;;;;;;5024794;28;20470;-72
2022/01/02 02:23:13;;;;;;;26.67;9.90;;;;;;;;;;5026995;28;20506;-72
2022/01/02 02:25:39;;;;;;;27.75;9.70;;;;;;;;;;5025337;28;20029;-71
2022/01/02 02:28:07;;;;;;;22.90;8.65;;;;;;;;;;5013849;28;20053;-71
2022/01/02 02:30:35;;;;;;;20.60;8.90;;;;;;;;;;5024742;28;20122;-70
2022/01/02 02:33:03;;;;;;;38.58;10.27;;;;;;;;;;5020744;28;20029;-71
2022/01/02 02:35:30;;;;;;;27.75;9.60;;;;;;;;;;5025057;28;20022;-71
2022/01/02 02:37:56;;;;;;;29.40;10.70;;;;;;;;;;5013418;28;20461;-71
2022/01/02 02:40:24;;;;;;;28.05;9.88;;;;;;;;;;5022819;28;20041;-71
2022/01/02 02:51:24;;;;;;;24.98;11.27;;;;;;;;;;5023796;28;20107;-70
2022/01/02 02:53:52;;;;;;;20.60;9.90;;;;;;;;;;5022140;28;20139;-70
2022/01/02 02:56:40;;;;;;;24.45;10.32;;;;;;;;;;5021747;28;20029;-70
2022/01/02 02:59:05;;;;;;;28.38;10.55;;;;;;;;;;5024249;28;20502;-71
2022/01/02 03:01:31;;;;;;;33.45;11.80;;;;;;;;;;5006813;28;20029;-71
2022/01/02 03:03:57;;;;;;;28.20;11.13;;;;;;;;;;5007950;28;20451;-71
2022/01/02 03:06:23;;;;;;;24.83;10.10;;;;;;;;;;5024885;28;20403;-70
2022/01/02 03:08:50;;;;;;;22.95;10.73;;;;;;;;;;5025795;28;20037;-70
2022/01/02 03:11:19;;;;;;;25.77;9.95;;;;;;;;;;5025664;28;20159;-71
2022/01/02 03:13:46;;;;;;;31.05;14.32;;;;;;;;;;5020627;28;20116;-71
2022/01/02 03:16:12;;;;;;;28.73;13.10;;;;;;;;;;5019036;28;20042;-72
2022/01/02 03:18:39;;;;;;;27.58;9.95;;;;;;;;;;5023972;28;20036;-71
2022/01/02 03:21:06;;;;;;;25.10;10.00;;;;;;;;;;5016934;28;20053;-71
2022/01/02 03:23:32;;;;;;;23.35;8.98;;;;;;;;;;5021925;28;20100;-71
2022/01/02 03:25:58;;;;;;;26.00;9.80;;;;;;;;;;5008859;28;20114;-70
2022/01/02 03:28:24;;;;;;;25.55;9.80;;;;;;;;;;5019775;28;20495;-70
2022/01/02 03:30:50;;;;;;;25.98;9.93;;;;;;;;;;5020454;28;20400;-70
2022/01/02 03:33:17;;;;;;;23.17;8.75;;;;;;;;;;5026382;28;20068;-70
2022/01/02 03:35:43;;;;;;;29.50;10.05;;;;;;;;;;5018450;28;20034;-70
2022/01/02 03:38:09;;;;;;;21.48;9.68;;;;;;;;;;5022310;28;20038;-70
2022/01/02 03:40:36;;;;;;;31.90;11.70;;;;;;;;;;5021779;28;21680;-70
2022/01/02 03:43:02;;;;;;;25.88;10.98;;;;;;;;;;5025744;28;20029;-70
2022/01/02 03:45:29;;;;;;;30.00;10.40;;;;;;;;;;5020265;28;20048;-70
2022/01/02 03:47:55;;;;;;;26.73;9.27;;;;;;;;;;5026390;28;20201;-70
2022/01/02 03:50:21;;;;;;;25.55;10.32;;;;;;;;;;5021022;28;20048;-69
2022/01/02 03:52:47;;;;;;;20.13;9.38;;;;;;;;;;5022615;28;20048;-70
2022/01/02 03:55:14;;;;;;;28.58;10.50;;;;;;;;;;5021410;28;20021;-70
2022/01/02 03:57:40;;;;;;;25.25;9.40;;;;;;;;;;5012239;28;20132;-69
2022/01/02 04:00:07;;;;;;;27.60;10.45;;;;;;;;;;5021687;28;20033;-70
2022/01/02 04:02:37;;;;;;;31.00;9.95;;;;;;;;;;5022335;28;20022;-70
2022/01/02 04:05:03;;;;;;;30.00;9.77;;;;;;;;;;5021543;28;20029;-70
2022/01/02 04:07:29;;;;;;;36.20;10.40;;;;;;;;;;5018892;28;20453;-70
2022/01/02 04:10:00;;;;;;;26.65;9.65;;;;;;;;;;5021967;28;20471;-70
2022/01/02 04:12:26;;;;;;;28.35;9.55;;;;;;;;;;5019889;28;20052;-70
2022/01/02 04:14:53;;;;;;;24.85;9.85;;;;;;;;;;5023344;28;20056;-70
2022/01/02 04:17:19;;;;;;;26.35;9.57;;;;;;;;;;5026100;28;20468;-70
2022/01/02 04:19:45;;;;;;;28.33;8.70;;;;;;;;;;5003959;28;20041;-71
2022/01/02 04:22:11;;;;;;;23.67;8.65;;;;;;;;;;5020524;28;20051;-72
2022/01/02 04:24:37;;;;;;;24.92;10.07;;;;;;;;;;5003228;28;20041;-71
2022/01/02 04:27:03;;;;;;;24.92;9.68;;;;;;;;;;5018527;28;20491;-72
2022/01/02 04:29:29;;;;;;;27.60;9.48;;;;;;;;;;5020896;28;20403;-71
2022/01/02 04:31:55;;;;;;;32.40;9.68;;;;;;;;;;5023967;28;20037;-72
2022/01/02 04:34:21;;;;;;;30.33;9.23;;;;;;;;;;5005662;28;20406;-71
2022/01/02 04:36:47;;;;;;;44.72;18.98;;;;;;;;;;4985941;28;20037;-72
2022/01/02 04:39:13;;;;;;;43.45;21.63;;;;;;;;;;5003939;28;20079;-71
2022/01/02 04:41:39;;;;;;;20.95;8.65;;;;;;;;;;4992322;28;20080;-71
2022/01/02 04:44:05;;;;;;;24.00;9.05;;;;;;;;;;5024701;28;20382;-71
2022/01/02 04:46:31;;;;;;;27.83;8.30;;;;;;;;;;5021557;28;20057;-72
2022/01/02 04:48:57;;;;;;;22.13;7.22;;;;;;;;;;5024058;28;20033;-71
2022/01/02 04:51:23;;;;;;;24.77;8.75;;;;;;;;;;5017786;28;20033;-72
2022/01/02 04:53:50;;;;;;;24.33;7.32;;;;;;;;;;5019832;28;20045;-72
2022/01/02 04:56:16;;;;;;;30.23;7.13;;;;;;;;;;5016685;28;20038;-72
2022/01/02 04:58:42;;;;;;;22.65;7.25;;;;;;;;;;5020468;28;20077;-72
2022/01/02 05:01:11;;;;;;;29.95;6.90;;;;;;;;;;4998393;28;20026;-72
2022/01/02 05:03:44;;;;;;;27.02;7.07;;;;;;;;;;5022658;28;20033;-71
2022/01/02 05:06:10;;;;;;;;;;;;;;;;;;5016885;28;20037;-72
2022/01/02 05:08:36;;;;;;;28.98;6.40;;;;;;;;;;5021617;28;20006;-72
2022/01/02 05:11:02;;;;;;;20.23;6.80;;;;;;;;;;5017491;28;20719;-72
2022/01/02 05:13:28;;;;;;;25.60;6.82;;;;;;;;;;5020214;28;20072;-72
2022/01/02 05:15:57;;;;;;;19.77;6.55;;;;;;;;;;5019826;28;20037;-72
2022/01/02 05:18:23;;;;;;;27.33;6.55;;;;;;;;;;5021706;28;20076;-72
2022/01/02 05:20:49;;;;;;;21.90;6.72;;;;;;;;;;5020842;28;20038;-72
2022/01/02 05:23:16;;;;;;;30.13;12.55;;;;;;;;;;5016654;28;20034;-71
2022/01/02 05:25:43;;;;;;;25.13;7.50;;;;;;;;;;5020075;28;20033;-72
2022/01/02 05:28:10;;;;;;;19.70;5.60;;;;;;;;;;5014675;28;20510;-72
2022/01/02 05:30:36;;;;;;;19.15;4.90;;;;;;;;;;5019540;28;20034;-71
2022/01/02 05:33:02;;;;;;;19.42;5.53;;;;;;;;;;5005609;28;20109;-72
2022/01/02 05:35:30;;;;;;;15.95;5.30;;;;;;;;;;5017489;28;20498;-72
2022/01/02 05:37:56;;;;;;;23.27;5.80;;;;;;;;;;5019937;28;20486;-72
2022/01/02 05:40:22;;;;;;;15.88;4.50;;;;;;;;;;5017315;28;20033;-71
2022/01/02 05:42:48;;;;;;;18.63;5.53;;;;;;;;;;5019018;28;20499;-72
2022/01/02 05:45:14;;;;;;;17.52;4.95;;;;;;;;;;5018256;28;20034;-72
2022/01/02 05:47:40;;;;;;;28.98;6.28;;;;;;;;;;5020482;28;20557;-71
2022/01/02 05:50:07;;;;;;;21.48;8.85;;;;;;;;;;5004072;28;20025;-71
2022/01/02 05:52:33;;;;;;;25.27;8.43;;;;;;;;;;5020831;28;20048;-71
2022/01/02 05:54:59;;;;;;;20.60;4.93;;;;;;;;;;5019553;28;20495;-71
2022/01/02 05:57:26;;;;;;;24.48;5.35;;;;;;;;;;5017569;28;20483;-70
2022/01/02 05:59:52;;;;;;;20.73;4.20;;;;;;;;;;5015971;28;20052;-71
2022/01/02 06:02:18;;;;;;;23.40;4.75;;;;;;;;;;5019082;28;20092;-71
2022/01/02 06:04:44;;;;;;;22.10;3.90;;;;;;;;;;5020910;28;20041;-70
2022/01/02 06:07:10;;;;;;;19.13;5.15;;;;;;;;;;5022234;28;20029;-71
2022/01/02 06:09:36;;;;;;;22.75;4.13;;;;;;;;;;5020378;28;20068;-70
2022/01/02 06:12:02;;;;;;;27.67;5.30;;;;;;;;;;5020607;28;20030;-71
2022/01/02 06:14:28;;;;;;;18.38;4.97;;;;;;;;;;5003970;28;20052;-70
2022/01/02 06:16:54;;;;;;;28.92;6.47;;;;;;;;;;5020666;28;20048;-71
2022/01/02 06:19:20;;;;;;;24.95;5.60;;;;;;;;;;5026345;28;20030;-71
2022/01/02 06:21:46;;;;;;;18.33;5.10;;;;;;;;;;5020575;28;20041;-71
2022/01/02 06:24:12;;;;;;;19.40;5.18;;;;;;;;;;5016285;28;20041;-71
2022/01/02 06:26:38;;;;;;;22.38;5.55;;;;;;;;;;5024248;28;20038;-71
2022/01/02 06:29:04;;;;;;;14.88;4.75;;;;;;;;;;5027176;28;20092;-71
2022/01/02 06:31:31;;;;;;;15.88;5.15;;;;;;;;;;5022115;28;20113;-72
2022/01/02 06:33:57;;;;;;;13.50;5.18;;;;;;;;;;5017900;28;20048;-72
2022/01/02 06:36:23;;;;;;;16.95;4.15;;;;;;;;;;5022826;28;20037;-71
2022/01/02 06:38:49;;;;;;;18.50;5.13;;;;;;;;;;5020108;28;20087;-71
2022/01/02 06:41:16;;;;;;;14.65;5.72;;;;;;;;;;5009525;28;20018;-72
2022/01/02 06:43:43;;;;;;;30.02;6.28;;;;;;;;;;5021754;28;20065;-71
2022/01/02 06:46:09;;;;;;;20.05;4.47;;;;;;;;;;5020419;28;20079;-72
2022/01/02 06:48:35;;;;;;;11.68;4.35;;;;;;;;;;5017874;28;20037;-71
2022/01/02 06:51:01;;;;;;;18.83;5.53;;;;;;;;;;5022451;28;20033;-71
2022/01/02 06:53:27;;;;;;;12.77;4.50;;;;;;;;;;5030995;28;20029;-71
2022/01/02 06:55:53;;;;;;;19.67;4.72;;;;;;;;;;5024498;28;20036;-71
2022/01/02 06:58:19;;;;;;;17.02;4.32;;;;;;;;;;5021548;28;20037;-71
2022/01/02 07:00:45;;;;;;;11.85;4.25;;;;;;;;;;5022254;28;20112;-72
2022/01/02 07:03:11;;;;;;;17.48;4.40;;;;;;;;;;5017072;28;20083;-71
2022/01/02 07:05:38;;;;;;;15.77;5.03;;;;;;;;;;5023472;28;20033;-71
2022/01/02 07:08:04;;;;;;;12.43;4.38;;;;;;;;;;5026071;28;20045;-72
2022/01/02 07:10:30;;;;;;;14.98;4.22;;;;;;;;;;5022924;28;21703;-72
2022/01/02 07:12:56;;;;;;;14.80;4.03;;;;;;;;;;5030932;28;20041;-71
2022/01/02 07:15:22;;;;;;;15.90;3.70;;;;;;;;;;5020968;28;20033;-72
2022/01/02 07:17:48;;;;;;;14.82;3.92;;;;;;;;;;5021506;28;20105;-72
2022/01/02 07:20:14;;;;;;;17.58;5.10;;;;;;;;;;5021263;28;20037;-71
2022/01/02 07:22:42;;;;;;;15.70;5.57;;;;;;;;;;5016563;28;20383;-71
2022/01/02 07:25:08;;;;;;;16.73;4.22;;;;;;;;;;5021858;28;20037;-71
2022/01/02 07:27:35;;;;;;;15.90;4.80;;;;;;;;;;5020153;28;20124;-72
2022/01/02 07:30:01;;;;;;;16.15;4.28;;;;;;;;;;5022448;28;20040;-72
2022/01/02 07:32:27;;;;;;;12.85;3.97;;;;;;;;;;5018611;28;20034;-71
2022/01/02 07:34:53;;;;;;;10.30;4.40;;;;;;;;;;5027219;28;20026;-71
2022/01/02 07:37:19;;;;;;;14.63;3.80;;;;;;;;;;5017335;28;20076;-72
2022/01/02 07:39:45;;;;;;;12.02;4.05;;;;;;;;;;5022312;28;20044;-71
2022/01/02 07:42:11;;;;;;;13.15;3.22;;;;;;;;;;5022883;28;20030;-72
2022/01/02 07:44:38;;;;;;;13.88;3.70;;;;;;;;;;5021977;28;20033;-72
2022/01/02 07:47:07;;;;;;;13.88;4.30;;;;;;;;;;5021782;28;20041;-72
2022/01/02 07:49:33;;;;;;;18.10;3.97;;;;;;;;;;5019858;28;20026;-72
2022/01/02 07:51:59;;;;;;;12.25;4.20;;;;;;;;;;5020303;28;20506;-72
2022/01/02 07:54:25;;;;;;;15.88;4.03;;;;;;;;;;5024538;28;20048;-72
2022/01/02 07:56:51;;;;;;;10.80;3.65;;;;;;;;;;5020308;28;20034;-72
2022/01/02 07:59:17;;;;;;;17.50;4.20;;;;;;;;;;5018868;28;20506;-72
2022/01/02 08:01:44;;;;;;;13.80;4.30;;;;;;;;;;4976150;28;20105;-72
2022/01/02 08:04:10;;;;;;;13.75;3.78;;;;;;;;;;4995318;28;20515;-72
2022/01/02 08:06:36;;;;;;;17.05;4.97;;;;;;;;;;5001155;28;20124;-71
2022/01/02 08:09:02;;;;;;;41.67;25.30;;;;;;;;;;5003312;28;20030;-73
2022/01/02 08:11:28;;;;;;;48.65;23.95;;;;;;;;;;4999821;28;20034;-73
2022/01/02 08:13:54;;;;;;;17.98;4.90;;;;;;;;;;5000071;28;20065;-71
2022/01/02 08:16:21;;;;;;;12.80;4.88;;;;;;;;;;5001560;28;20038;-72
2022/01/02 08:18:47;;;;;;;16.55;4.70;;;;;;;;;;4988154;28;20033;-72
2022/01/02 08:21:13;;;;;;;14.27;5.38;;;;;;;;;;4999450;28;20042;-73
2022/01/02 08:23:39;;;;;;;13.80;7.75;;;;;;;;;;5006457;28;20076;-72
2022/01/02 08:26:05;;;;;;;13.90;6.15;;;;;;;;;;4998960;28;20732;-73
2022/01/02 08:28:31;;;;;;;14.38;5.70;;;;;;;;;;4983870;28;20033;-71
2022/01/02 08:30:57;;;;;;;14.70;6.15;;;;;;;;;;5001494;28;20480;-72
2022/01/02 08:33:23;;;;;;;14.63;5.85;;;;;;;;;;4988021;28;20372;-72
2022/01/02 08:35:49;;;;;;;16.23;5.68;;;;;;;;;;5001195;28;20033;-72
2022/01/02 08:38:15;;;;;;;17.27;5.18;;;;;;;;;;5002543;28;20392;-72
2022/01/02 08:40:42;;;;;;;14.32;4.55;;;;;;;;;;4999560;28;20026;-72
2022/01/02 08:43:08;;;;;;;11.73;5.07;;;;;;;;;;4999878;28;20030;-72
2022/01/02 08:45:35;;;;;;;9.10;4.70;;;;;;;;;;5001775;28;20399;-72
2022/01/02 08:48:01;;;;;;;18.95;5.13;;;;;;;;;;5000190;28;20045;-72
2022/01/02 08:50:27;;;;;;;9.18;5.25;;;;;;;;;;4999828;28;20109;-72
2022/01/02 08:52:53;;;;;;;10.13;4.30;;;;;;;;;;4985803;28;20104;-73
2022/01/02 08:55:19;;;;;;;10.25;4.85;;;;;;;;;;4999671;28;20034;-72
2022/01/02 08:57:46;;;;;;;13.25;4.65;;;;;;;;;;5000014;28;20073;-73
2022/01/02 09:00:12;;;;;;;13.77;5.40;;;;;;;;;;5000126;28;20679;-72
2022/01/02 09:02:38;;;;;;;11.93;6.05;;;;;;;;;;4999980;28;20072;-72
2022/01/02 09:05:04;;;;;;;12.10;4.43;;;;;;;;;;5001924;28;20042;-73
2022/01/02 09:07:31;;;;;;;12.85;4.85;;;;;;;;;;5003269;28;20037;-72
2022/01/02 09:09:57;;;;;;;16.15;4.25;;;;;;;;;;5003277;28;20048;-72
2022/01/02 09:12:23;;;;;;;23.60;11.93;;;;;;;;;;5002869;28;20038;-71
2022/01/02 09:14:49;;;;;;;15.68;7.60;;;;;;;;;;5001894;28;20116;-74
2022/01/02 09:17:15;;;;;;;11.70;4.95;;;;;;;;;;4983590;28;20468;-73
2022/01/02 09:19:41;;;;;;;15.88;4.65;;;;;;;;;;4999747;28;20061;-73
2022/01/02 09:22:07;;;;;;;11.52;4.45;;;;;;;;;;4999718;28;20068;-72
2022/01/02 09:24:33;;;;;;;13.40;5.20;;;;;;;;;;5000297;28;20030;-72
2022/01/02 09:26:59;;;;;;;9.45;4.85;;;;;;;;;;4986862;28;20073;-72
2022/01/02 09:29:25;;;;;;;11.05;4.63;;;;;;;;;;5000720;28;20026;-72
2022/01/02 09:31:51;;;;;;;14.35;4.80;;;;;;;;;;4991035;28;20034;-72
2022/01/02 09:34:18;;;;;;;12.90;5.05;;;;;;;;;;4998545;28;20049;-72
2022/01/02 09:36:44;;;;;;;9.95;4.55;;;;;;;;;;4998025;28;20044;-73
2022/01/02 09:39:10;;;;;;;11.70;5.00;;;;;;;;;;5001495;28;20033;-73
2022/01/02 09:41:36;;;;;;;12.57;4.63;;;;;;;;;;4999381;28;20040;-73
2022/01/02 09:44:02;;;;;;;12.77;4.35;;;;;;;;;;4996831;28;20085;-73
2022/01/02 09:46:29;;;;;;;9.82;4.68;;;;;;;;;;4996189;28;20021;-73
2022/01/02 09:48:55;;;;;;;12.02;4.38;;;;;;;;;;5002091;28;20511;-73
2022/01/02 09:51:26;;;;;;;12.75;4.70;;;;;;;;;;4998708;28;20491;-73
2022/01/02 09:53:53;;;;;;;16.02;4.75;;;;;;;;;;5003433;28;20054;-73
2022/01/02 09:56:19;;;;;;;10.88;4.85;;;;;;;;;;4999254;28;20525;-72
2022/01/02 09:58:45;;;;;;;14.55;4.88;;;;;;;;;;4999251;28;20069;-72
2022/01/02 10:01:38;;;;;;;10.70;4.88;;;;;;;;;;4997132;28;20042;-73
2022/01/02 10:04:04;;;;;;;15.80;5.60;;;;;;;;;;4996949;28;20026;-73
2022/01/02 10:06:46;;;;;;;11.40;5.00;;;;;;;;;;4999512;28;20065;-72
2022/01/02 10:09:32;;;;;;;12.90;5.43;;;;;;;;;;5001667;28;20034;-73
2022/01/02 10:12:16;;;;;;;15.98;5.00;;;;;;;;;;4995830;28;20581;-73
2022/01/02 10:14:42;;;;;;;29.73;13.93;;;;;;;;;;5005806;28;20066;-71
2022/01/02 10:17:08;;;;;;;18.13;4.93;;;;;;;;;;4990607;28;20041;-72
2022/01/02 10:19:38;;;;;;;15.85;4.75;;;;;;;;;;5004399;28;20034;-73
2022/01/02 10:22:06;;;;;;;17.13;4.70;;;;;;;;;;4986185;28;20069;-73
2022/01/02 10:24:33;;;;;;;26.27;5.60;;;;;;;;;;5002662;28;20036;-74
2022/01/02 10:27:04;;;;;;;19.33;4.75;;;;;;;;;;4985021;28;20029;-74
2022/01/02 10:29:39;;;;;;;16.42;4.65;;;;;;;;;;4999818;28;20030;-73
2022/01/02 10:32:24;;;;;;;15.70;4.70;;;;;;;;;;5007107;28;20389;-73
2022/01/02 10:34:51;;;;;;;19.42;4.75;;;;;;;;;;5002987;28;20503;-73
2022/01/02 10:37:27;;;;;;;14.07;4.57;;;;;;;;;;5002660;28;20034;-73
2022/01/02 10:39:54;;;;;;;19.50;4.43;;;;;;;;;;4994868;28;20042;-73
2022/01/02 10:42:21;;;;;;;16.55;4.82;;;;;;;;;;5005225;28;20112;-73
2022/01/02 10:44:47;;;;;;;18.05;4.13;;;;;;;;;;5002639;28;20030;-74
2022/01/02 10:47:21;;;;;;;19.13;5.22;;;;;;;;;;4998970;28;20034;-73
2022/01/02 10:49:55;;;;;;;13.27;4.60;;;;;;;;;;5002749;28;20061;-72
2022/01/02 10:52:25;;;;;;;14.60;4.68;;;;;;;;;;5007794;28;20039;-74
2022/01/02 10:54:52;;;;;;;15.63;4.10;;;;;;;;;;5003678;28;20061;-73
2022/01/02 10:57:18;;;;;;;17.35;4.25;;;;;;;;;;5004260;28;20076;-74
2022/01/02 10:59:45;;;;;;;23.15;4.30;;;;;;;;;;4986574;28;20080;-74
2022/01/02 11:02:12;;;;;;;16.08;4.90;;;;;;;;;;5000020;28;20033;-73
2022/01/02 11:04:43;;;;;;;17.30;4.70;;;;;;;;;;4999731;28;20410;-73
2022/01/02 11:07:10;;;;;;;15.40;4.30;;;;;;;;;;5005053;28;20108;-73
2022/01/02 11:09:37;;;;;;;19.17;5.28;;;;;;;;;;5000575;28;20031;-73
2022/01/02 11:12:03;;;;;;;20.30;4.55;;;;;;;;;;4997930;28;20067;-73
2022/01/02 11:14:30;;;;;;;14.05;3.47;;;;;;;;;;5001852;28;20030;-73
2022/01/02 11:16:56;;;;;;;18.90;4.40;;;;;;;;;;4987721;28;20117;-73
2022/01/02 11:19:22;;;;;;;24.25;5.40;;;;;;;;;;5006080;28;20117;-73
2022/01/02 11:21:49;;;;;;;20.75;4.55;;;;;;;;;;5002412;28;20053;-73
2022/01/02 11:24:21;;;;;;;13.60;4.13;;;;;;;;;;5005081;28;20488;-73
2022/01/02 11:26:54;;;;;;;14.38;3.78;;;;;;;;;;5003071;28;20151;-74
2022/01/02 11:29:26;;;;;;;15.45;3.90;;;;;;;;;;4990989;28;20026;-73
2022/01/02 11:31:52;;;;;;;17.05;4.13;;;;;;;;;;5002751;28;20025;-73
2022/01/02 11:34:26;;;;;;;15.25;3.75;;;;;;;;;;5004087;28;20123;-73
2022/01/02 11:36:53;;;;;;;18.55;3.80;;;;;;;;;;4993978;28;20084;-72
2022/01/02 11:39:19;;;;;;;24.20;4.15;;;;;;;;;;4983202;28;20038;-73
2022/01/02 11:41:47;;;;;;;18.30;4.40;;;;;;;;;;5003989;28;20080;-73
2022/01/02 11:44:14;;;;;;;17.13;3.72;;;;;;;;;;4981880;28;20416;-72
2022/01/02 11:46:50;;;;;;;21.50;4.63;;;;;;;;;;5004728;28;20057;-73
2022/01/02 11:49:27;;;;;;;19.38;4.95;;;;;;;;;;4986129;28;20137;-73
2022/01/02 11:52:03;;;;;;;23.10;4.93;;;;;;;;;;5002260;28;20386;-72
2022/01/02 11:56:58;;;;;;;19.58;3.78;;;;;;;;;;4998405;28;20041;-72
2022/01/02 11:59:40;;;;;;;22.35;3.70;;;;;;;;;;4996391;28;20026;-71
2022/01/02 12:02:15;;;;;;;19.17;3.67;;;;;;;;;;5003986;28;20380;-72
2022/01/02 12:04:59;;;;;;;21.35;4.82;;;;;;;;;;4998151;28;20438;-72
2022/01/02 12:07:35;;;;;;;19.80;3.38;;;;;;;;;;5007371;28;20033;-72
2022/01/02 12:10:16;;;;;;;20.23;3.75;;;;;;;;;;5001105;28;20034;-72
2022/01/02 12:13:02;;;;;;;21.20;4.70;;;;;;;;;;4984397;28;20034;-72
2022/01/02 12:15:34;;;;;;;21.42;3.22;;;;;;;;;;5007307;28;20163;-72
2022/01/02 12:18:27;;;;;;;17.98;3.97;;;;;;;;;;5001129;28;20084;-72
2022/01/02 12:20:53;;;;;;;18.23;4.05;;;;;;;;;;5001643;28;20041;-72
2022/01/02 12:23:31;;;;;;;20.13;4.68;;;;;;;;;;4999045;28;20022;-73
2022/01/02 12:26:21;;;;;;;16.98;2.97;;;;;;;;;;5007789;28;20120;-73
2022/01/02 12:28:57;;;;;;;20.80;4.97;;;;;;;;;;5000931;28;20042;-73
2022/01/02 12:31:26;;;;;;;17.73;4.32;;;;;;;;;;5006187;28;20041;-72
2022/01/02 12:33:54;;;;;;;23.55;4.65;;;;;;;;;;5003045;28;20407;-73
2022/01/02 12:36:20;;;;;;;31.63;5.53;;;;;;;;;;5002104;28;20042;-73
2022/01/02 12:38:47;;;;;;;20.88;5.35;;;;;;;;;;5001065;28;20402;-73
2022/01/02 12:41:14;;;;;;;23.92;5.20;;;;;;;;;;4999128;28;20025;-72
2022/01/02 12:43:41;;;;;;;27.45;4.80;;;;;;;;;;5002955;28;20022;-72
2022/01/02 12:46:07;;;;;;;27.42;9.35;;;;;;;;;;5001820;28;20704;-74
2022/01/02 12:48:34;;;;;;;19.10;4.90;;;;;;;;;;5007931;28;20041;-72
2022/01/02 12:51:14;;;;;;;21.80;4.15;;;;;;;;;;4999027;28;20022;-72
2022/01/02 12:53:40;;;;;;;19.40;3.45;;;;;;;;;;5007572;28;20032;-72
2022/01/02 12:56:06;;;;;;;16.87;3.80;;;;;;;;;;5000780;28;20104;-72
2022/01/02 12:58:34;;;;;;;22.92;4.97;;;;;;;;;;5001780;28;20380;-71
2022/01/02 13:01:06;;;;;;;21.08;4.47;;;;;;;;;;5000555;28;20026;-72
2022/01/02 13:03:32;;;;;;;24.40;4.68;;;;;;;;;;4985170;28;20045;-71
2022/01/02 13:05:59;;;;;;;18.52;4.25;;;;;;;;;;4998114;28;20068;-72
2022/01/02 13:08:26;;;;;;;21.40;4.63;;;;;;;;;;4986530;28;20030;-72
2022/01/02 13:10:52;;;;;;;18.95;3.25;;;;;;;;;;5000901;28;20039;-72
2022/01/02 13:13:28;;;;;;;19.35;3.97;;;;;;;;;;4999899;28;20022;-72
2022/01/02 13:15:54;;;;;;;22.15;6.07;;;;;;;;;;5001919;28;20050;-71
2022/01/02 13:18:21;;;;;;;19.70;3.58;;;;;;;;;;4996467;28;20099;-73
2022/01/02 13:20:48;;;;;;;15.00;2.78;;;;;;;;;;4994692;28;20133;-73
2022/01/02 13:23:14;;;;;;;19.23;2.63;;;;;;;;;;4982410;28;20045;-72
2022/01/02 13:25:42;;;;;;;17.75;2.42;;;;;;;;;;4986085;28;20053;-72
2022/01/02 13:28:11;;;;;;;19.08;2.63;;;;;;;;;;4999226;28;20506;-72
2022/01/02 13:30:40;;;;;;;14.13;2.05;;;;;;;;;;4986597;28;20104;-72
2022/01/02 13:33:19;;;;;;;13.52;2.38;;;;;;;;;;4999361;28;20112;-73
2022/01/02 13:35:46;;;;;;;18.52;2.78;;;;;;;;;;5007536;28;20046;-72
2022/01/02 13:38:12;;;;;;;32.13;8.93;;;;;;;;;;5000889;28;20037;-72
2022/01/02 13:40:38;;;;;;;15.70;2.83;;;;;;;;;;4991394;28;20022;-72
2022/01/02 13:43:21;;;;;;;15.85;4.22;;;;;;;;;;5003588;28;20036;-71
2022/01/02 13:45:47;;;;;;;20.63;3.25;;;;;;;;;;5004019;28;20108;-71
2022/01/02 13:48:13;;;;;;;14.70;3.20;;;;;;;;;;5000725;28;20117;-71
2022/01/02 13:50:40;;;;;;;17.17;2.53;;;;;;;;;;5010335;28;20030;-71
2022/01/02 13:53:08;;;;;;;17.90;2.90;;;;;;;;;;5001671;28;20030;-70
2022/01/02 13:55:36;;;;;;;16.20;2.78;;;;;;;;;;4995904;28;20073;-71
2022/01/02 13:58:14;;;;;;;15.55;2.92;;;;;;;;;;5002101;28;20029;-70
2022/01/02 14:00:44;;;;;;;23.02;3.03;;;;;;;;;;5003728;28;20442;-72
2022/01/02 14:03:24;;;;;;;16.08;2.78;;;;;;;;;;4999140;28;20518;-73
2022/01/02 14:05:50;;;;;;;23.02;2.40;;;;;;;;;;5004871;28;20022;-73
2022/01/02 14:08:17;;;;;;;16.02;2.10;;;;;;;;;;5001155;28;20035;-75
2022/01/02 14:10:44;;;;;;;12.82;2.05;;;;;;;;;;5001633;28;20109;-78
2022/01/02 14:13:15;;;;;;;16.52;2.78;;;;;;;;;;5001594;28;20050;-79
2022/01/02 14:15:43;;;;;;;26.50;2.95;;;;;;;;;;5002698;28;20104;-82
2022/01/02 14:18:09;;;;;;;17.27;1.85;;;;;;;;;;5000518;28;20093;-72
2022/01/02 14:20:37;;;;;;;14.35;2.25;;;;;;;;;;5000598;28;20041;-73
2022/01/02 14:23:05;;;;;;;13.77;2.40;;;;;;;;;;5002113;28;20030;-73
2022/01/02 14:25:31;;;;;;;21.30;3.95;;;;;;;;;;4987075;28;20061;-74
2022/01/02 14:27:57;;;;;;;11.00;1.95;;;;;;;;;;4982198;28;20067;-74
2022/01/02 14:30:24;;;;;;;16.20;2.03;;;;;;;;;;5002264;28;20029;-72
2022/01/02 14:32:52;;;;;;;14.10;2.45;;;;;;;;;;5002428;28;20026;-72
2022/01/02 14:35:18;;;;;;;26.15;3.00;;;;;;;;;;5000414;28;20084;-72
2022/01/02 14:37:45;;;;;;;12.70;2.00;;;;;;;;;;5003238;28;20427;-75
2022/01/02 14:40:12;;;;;;;15.43;3.00;;;;;;;;;;5001399;28;20049;-74
2022/01/02 14:42:39;;;;;;;19.98;2.20;;;;;;;;;;4986770;28;20030;-73